sensor_id;sensor_type;location;lat;lon;timestamp;pressure;altitude;pressure_sealevel;temperature;humidity
11268;BME280;49397;47.474;9.416;2023-07-08T00:02:24;95561.56;;;19.26;57.55
11268;BME280;49397;47.474;9.416;2023-07-08T00:05:10;95552.78;;;19.32;56.69
11268;BME280;49397;47.474;9.416;2023-07-08T00:07:54;95556.78;;;19.38;56.71
11268;BME280;49397;47.474;9.416;2023-07-08T00:10:38;95555.56;;;19.36;56.63
11268;BME280;49397;47.474;9.416;2023-07-08T00:13:22;95555.75;;;19.24;56.41
11268;BME280;49397;47.474;9.416;2023-07-08T00:16:15;95550.19;;;19.17;57.37
11268;BME280;49397;47.474;9.416;2023-07-08T00:18:59;95554.16;;;19.23;57.33
11268;BME280;49397;47.474;9.416;2023-07-08T00:21:43;95541.91;;;19.10;57.59
11268;BME280;49397;47.474;9.416;2023-07-08T00:24:27;95551.16;;;18.89;58.33
11268;BME280;49397;47.474;9.416;2023-07-08T00:27:12;95538.16;;;18.95;58.27
11268;BME280;49397;47.474;9.416;2023-07-08T00:29:56;95537.75;;;19.16;56.45
11268;BME280;49397;47.474;9.416;2023-07-08T00:32:40;95539.47;;;19.24;56.72
11268;BME280;49397;47.474;9.416;2023-07-08T00:35:35;95542.59;;;19.26;56.01
11268;BME280;49397;47.474;9.416;2023-07-08T00:38:25;95539.31;;;19.36;56.23
11268;BME280;49397;47.474;9.416;2023-07-08T00:44:00;95547.00;;;19.53;55.49
11268;BME280;49397;47.474;9.416;2023-07-08T00:47:03;95556.69;;;19.54;56.03
11268;BME280;49397;47.474;9.416;2023-07-08T00:49:52;95555.13;;;19.53;55.52
11268;BME280;49397;47.474;9.416;2023-07-08T00:52:39;95558.09;;;19.67;54.32
11268;BME280;49397;47.474;9.416;2023-07-08T00:55:24;95560.75;;;19.64;54.80
11268;BME280;49397;47.474;9.416;2023-07-08T00:58:08;95558.81;;;19.64;54.53
11268;BME280;49397;47.474;9.416;2023-07-08T01:00:53;95548.91;;;19.72;54.18
11268;BME280;49397;47.474;9.416;2023-07-08T01:04:02;95559.09;;;19.78;54.43
11268;BME280;49397;47.474;9.416;2023-07-08T01:06:52;95570.59;;;19.72;54.36
11268;BME280;49397;47.474;9.416;2023-07-08T01:09:43;95595.81;;;19.76;54.68
11268;BME280;49397;47.474;9.416;2023-07-08T01:12:33;95630.34;;;19.79;54.81
11268;BME280;49397;47.474;9.416;2023-07-08T01:15:19;95646.63;;;19.79;54.32
11268;BME280;49397;47.474;9.416;2023-07-08T01:18:05;95642.72;;;19.76;54.77
11268;BME280;49397;47.474;9.416;2023-07-08T01:20:49;95645.66;;;19.68;55.86
11268;BME280;49397;47.474;9.416;2023-07-08T01:23:34;95643.75;;;19.68;55.61
11268;BME280;49397;47.474;9.416;2023-07-08T01:26:23;95645.69;;;19.90;53.79
11268;BME280;49397;47.474;9.416;2023-07-08T01:29:08;95663.78;;;20.05;53.51
11268;BME280;49397;47.474;9.416;2023-07-08T01:31:55;95659.75;;;19.96;54.16
11268;BME280;49397;47.474;9.416;2023-07-08T01:34:39;95674.75;;;19.90;55.03
11268;BME280;49397;47.474;9.416;2023-07-08T01:37:38;95668.47;;;19.86;54.84
11268;BME280;49397;47.474;9.416;2023-07-08T01:40:27;95684.41;;;19.87;54.92
11268;BME280;49397;47.474;9.416;2023-07-08T01:43:13;95696.44;;;19.90;54.96
11268;BME280;49397;47.474;9.416;2023-07-08T01:46:00;95703.94;;;19.96;54.90
11268;BME280;49397;47.474;9.416;2023-07-08T01:48:50;95700.63;;;20.06;55.18
11268;BME280;49397;47.474;9.416;2023-07-08T01:51:35;95705.22;;;20.02;56.30
11268;BME280;49397;47.474;9.416;2023-07-08T01:54:19;95702.91;;;20.04;54.68
11268;BME280;49397;47.474;9.416;2023-07-08T01:57:03;95696.66;;;20.23;51.99
11268;BME280;49397;47.474;9.416;2023-07-08T01:59:47;95693.09;;;20.38;51.66
11268;BME280;49397;47.474;9.416;2023-07-08T02:02:31;95690.53;;;20.49;50.89
11268;BME280;49397;47.474;9.416;2023-07-08T02:05:15;95695.97;;;20.49;50.62
11268;BME280;49397;47.474;9.416;2023-07-08T02:07:59;95700.66;;;20.52;51.02
11268;BME280;49397;47.474;9.416;2023-07-08T02:10:48;95699.84;;;20.48;51.86
11268;BME280;49397;47.474;9.416;2023-07-08T02:13:32;95693.44;;;20.37;52.70
11268;BME280;49397;47.474;9.416;2023-07-08T02:16:16;95686.75;;;20.31;52.44
11268;BME280;49397;47.474;9.416;2023-07-08T02:19:00;95689.84;;;20.29;52.28
11268;BME280;49397;47.474;9.416;2023-07-08T02:21:44;95680.91;;;20.29;51.48
11268;BME280;49397;47.474;9.416;2023-07-08T02:24:28;95683.25;;;20.30;52.63
11268;BME280;49397;47.474;9.416;2023-07-08T02:27:12;95696.47;;;20.32;51.80
11268;BME280;49397;47.474;9.416;2023-07-08T02:29:56;95712.03;;;20.35;52.07
11268;BME280;49397;47.474;9.416;2023-07-08T02:32:40;95717.47;;;20.16;52.78
11268;BME280;49397;47.474;9.416;2023-07-08T02:35:29;95710.84;;;20.13;53.24
11268;BME280;49397;47.474;9.416;2023-07-08T02:38:13;95703.66;;;20.24;51.36
11268;BME280;49397;47.474;9.416;2023-07-08T02:40:57;95700.00;;;20.36;51.04
11268;BME280;49397;47.474;9.416;2023-07-08T02:43:41;95698.69;;;20.49;50.92
11268;BME280;49397;47.474;9.416;2023-07-08T02:46:25;95684.88;;;20.57;50.23
11268;BME280;49397;47.474;9.416;2023-07-08T02:49:09;95678.22;;;20.55;50.96
11268;BME280;49397;47.474;9.416;2023-07-08T02:51:53;95675.09;;;20.53;50.77
11268;BME280;49397;47.474;9.416;2023-07-08T02:54:37;95668.13;;;20.55;50.91
11268;BME280;49397;47.474;9.416;2023-07-08T02:57:21;95660.25;;;20.47;51.30
11268;BME280;49397;47.474;9.416;2023-07-08T03:00:06;95652.00;;;20.40;51.38
11268;BME280;49397;47.474;9.416;2023-07-08T03:02:51;95653.81;;;20.32;53.12
11268;BME280;49397;47.474;9.416;2023-07-08T03:05:34;95649.16;;;20.33;51.61
11268;BME280;49397;47.474;9.416;2023-07-08T03:08:20;95646.50;;;20.36;52.06
11268;BME280;49397;47.474;9.416;2023-07-08T03:11:05;95634.25;;;20.46;50.51
11268;BME280;49397;47.474;9.416;2023-07-08T03:13:49;95642.97;;;20.58;49.57
11268;BME280;49397;47.474;9.416;2023-07-08T03:16:33;95643.81;;;20.63;49.16
11268;BME280;49397;47.474;9.416;2023-07-08T03:19:17;95639.50;;;20.58;49.66
11268;BME280;49397;47.474;9.416;2023-07-08T03:22:01;95642.81;;;20.48;51.50
11268;BME280;49397;47.474;9.416;2023-07-08T03:24:48;95637.94;;;20.34;52.15
11268;BME280;49397;47.474;9.416;2023-07-08T03:27:32;95647.38;;;20.21;52.88
11268;BME280;49397;47.474;9.416;2023-07-08T03:30:16;95651.13;;;20.13;53.28
11268;BME280;49397;47.474;9.416;2023-07-08T03:33:00;95648.38;;;20.10;52.01
11268;BME280;49397;47.474;9.416;2023-07-08T03:35:45;95650.88;;;20.22;50.51
11268;BME280;49397;47.474;9.416;2023-07-08T03:38:28;95649.53;;;20.31;50.07
11268;BME280;49397;47.474;9.416;2023-07-08T03:41:12;95651.69;;;20.45;49.29
11268;BME280;49397;47.474;9.416;2023-07-08T03:43:56;95655.00;;;20.57;48.94
11268;BME280;49397;47.474;9.416;2023-07-08T03:46:41;95649.81;;;20.49;50.89
11268;BME280;49397;47.474;9.416;2023-07-08T03:49:26;95656.56;;;20.36;50.58
11268;BME280;49397;47.474;9.416;2023-07-08T03:52:15;95664.47;;;20.22;50.95
11268;BME280;49397;47.474;9.416;2023-07-08T03:54:59;95670.47;;;20.12;51.16
11268;BME280;49397;47.474;9.416;2023-07-08T03:57:43;95665.38;;;20.06;53.53
11268;BME280;49397;47.474;9.416;2023-07-08T04:00:27;95658.66;;;20.23;50.03
11268;BME280;49397;47.474;9.416;2023-07-08T04:03:11;95649.50;;;20.54;48.76
11268;BME280;49397;47.474;9.416;2023-07-08T04:05:55;95635.50;;;20.78;47.24
11268;BME280;49397;47.474;9.416;2023-07-08T04:08:39;95633.13;;;21.03;46.24
11268;BME280;49397;47.474;9.416;2023-07-08T04:11:24;95630.91;;;21.08;46.72
11268;BME280;49397;47.474;9.416;2023-07-08T04:14:09;95634.56;;;20.93;47.93
11268;BME280;49397;47.474;9.416;2023-07-08T04:16:58;95644.72;;;21.00;47.51
11268;BME280;49397;47.474;9.416;2023-07-08T04:19:42;95636.97;;;20.72;49.36
11268;BME280;49397;47.474;9.416;2023-07-08T04:22:27;95641.38;;;20.54;48.97
11268;BME280;49397;47.474;9.416;2023-07-08T04:25:12;95642.94;;;20.81;47.61
11268;BME280;49397;47.474;9.416;2023-07-08T04:27:57;95644.78;;;20.77;48.31
11268;BME280;49397;47.474;9.416;2023-07-08T04:30:42;95659.66;;;20.57;49.39
11268;BME280;49397;47.474;9.416;2023-07-08T04:33:25;95659.47;;;20.46;50.11
11268;BME280;49397;47.474;9.416;2023-07-08T04:36:13;95665.69;;;20.47;50.36
11268;BME280;49397;47.474;9.416;2023-07-08T04:38:58;95662.97;;;20.47;50.16
11268;BME280;49397;47.474;9.416;2023-07-08T04:41:43;95680.78;;;20.44;50.21
11268;BME280;49397;47.474;9.416;2023-07-08T04:44:27;95668.09;;;20.52;49.86
11268;BME280;49397;47.474;9.416;2023-07-08T04:47:11;95684.44;;;20.55;49.56
11268;BME280;49397;47.474;9.416;2023-07-08T04:49:57;95685.28;;;20.59;49.63
11268;BME280;49397;47.474;9.416;2023-07-08T04:52:41;95680.69;;;20.64;49.95
11268;BME280;49397;47.474;9.416;2023-07-08T04:55:25;95690.44;;;20.68;49.26
11268;BME280;49397;47.474;9.416;2023-07-08T04:58:09;95702.69;;;20.81;48.87
11268;BME280;49397;47.474;9.416;2023-07-08T05:00:53;95712.03;;;20.84;48.49
11268;BME280;49397;47.474;9.416;2023-07-08T05:03:37;95713.41;;;20.97;47.84
11268;BME280;49397;47.474;9.416;2023-07-08T05:06:21;95707.28;;;21.03;48.15
11268;BME280;49397;47.474;9.416;2023-07-08T05:09:05;95710.56;;;21.13;47.60
11268;BME280;49397;47.474;9.416;2023-07-08T05:11:49;95701.66;;;21.16;47.49
11268;BME280;49397;47.474;9.416;2023-07-08T05:14:33;95701.78;;;21.23;47.71
11268;BME280;49397;47.474;9.416;2023-07-08T05:17:17;95701.72;;;21.19;48.17
11268;BME280;49397;47.474;9.416;2023-07-08T05:20:01;95713.06;;;21.25;48.31
11268;BME280;49397;47.474;9.416;2023-07-08T05:22:47;95717.09;;;21.34;46.83
11268;BME280;49397;47.474;9.416;2023-07-08T05:25:32;95724.63;;;21.48;47.44
11268;BME280;49397;47.474;9.416;2023-07-08T05:28:16;95720.41;;;21.50;47.19
11268;BME280;49397;47.474;9.416;2023-07-08T05:31:00;95731.81;;;21.59;46.96
11268;BME280;49397;47.474;9.416;2023-07-08T05:33:44;95739.56;;;21.61;46.98
11268;BME280;49397;47.474;9.416;2023-07-08T05:36:28;95744.03;;;21.76;46.30
11268;BME280;49397;47.474;9.416;2023-07-08T05:39:12;95751.66;;;21.93;45.59
11268;BME280;49397;47.474;9.416;2023-07-08T05:41:56;95754.09;;;21.98;45.60
11268;BME280;49397;47.474;9.416;2023-07-08T05:44:40;95751.38;;;22.02;44.63
11268;BME280;49397;47.474;9.416;2023-07-08T05:47:24;95757.59;;;22.02;45.66
11268;BME280;49397;47.474;9.416;2023-07-08T05:50:08;95757.25;;;22.04;45.71
11268;BME280;49397;47.474;9.416;2023-07-08T05:52:52;95761.16;;;22.06;46.15
11268;BME280;49397;47.474;9.416;2023-07-08T05:55:36;95770.19;;;22.14;45.97
11268;BME280;49397;47.474;9.416;2023-07-08T05:58:20;95772.13;;;22.13;45.74
11268;BME280;49397;47.474;9.416;2023-07-08T06:01:04;95766.75;;;22.17;46.36
11268;BME280;49397;47.474;9.416;2023-07-08T06:03:48;95769.81;;;22.15;45.66
11268;BME280;49397;47.474;9.416;2023-07-08T06:06:33;95776.34;;;22.07;46.41
11268;BME280;49397;47.474;9.416;2023-07-08T06:09:17;95781.06;;;22.10;46.34
11268;BME280;49397;47.474;9.416;2023-07-08T06:12:01;95788.38;;;22.06;46.65
11268;BME280;49397;47.474;9.416;2023-07-08T06:14:45;95782.16;;;22.06;46.25
11268;BME280;49397;47.474;9.416;2023-07-08T06:17:29;95791.06;;;22.03;47.00
11268;BME280;49397;47.474;9.416;2023-07-08T06:20:13;95786.81;;;22.05;45.84
11268;BME280;49397;47.474;9.416;2023-07-08T06:22:38;95794.63;;;22.07;46.74
11268;BME280;49397;47.474;9.416;2023-07-08T06:25:04;95794.94;;;22.02;46.20
11268;BME280;49397;47.474;9.416;2023-07-08T06:27:29;95807.78;;;22.01;47.00
11268;BME280;49397;47.474;9.416;2023-07-08T06:29:55;95808.88;;;21.97;46.89
11268;BME280;49397;47.474;9.416;2023-07-08T06:32:20;95824.38;;;21.93;47.08
11268;BME280;49397;47.474;9.416;2023-07-08T06:34:45;95827.34;;;21.84;47.38
11268;BME280;49397;47.474;9.416;2023-07-08T06:37:11;95833.53;;;21.81;47.61
11268;BME280;49397;47.474;9.416;2023-07-08T06:39:36;95836.66;;;21.83;47.29
11268;BME280;49397;47.474;9.416;2023-07-08T06:42:02;95827.69;;;21.83;48.42
11268;BME280;49397;47.474;9.416;2023-07-08T06:44:27;95829.28;;;21.84;47.15
11268;BME280;49397;47.474;9.416;2023-07-08T06:46:53;95833.56;;;21.85;48.41
11268;BME280;49397;47.474;9.416;2023-07-08T06:49:18;95836.66;;;21.83;47.49
11268;BME280;49397;47.474;9.416;2023-07-08T06:51:43;95840.09;;;21.80;47.25
11268;BME280;49397;47.474;9.416;2023-07-08T06:54:11;95845.34;;;21.89;47.13
11268;BME280;49397;47.474;9.416;2023-07-08T06:56:40;95837.97;;;21.93;46.97
11268;BME280;49397;47.474;9.416;2023-07-08T06:59:07;95848.06;;;21.89;48.36
11268;BME280;49397;47.474;9.416;2023-07-08T07:01:33;95846.53;;;21.91;48.57
11268;BME280;49397;47.474;9.416;2023-07-08T07:03:59;95837.84;;;21.86;47.89
11268;BME280;49397;47.474;9.416;2023-07-08T07:06:25;95845.78;;;21.94;48.25
11268;BME280;49397;47.474;9.416;2023-07-08T07:08:51;95845.09;;;22.01;47.29
11268;BME280;49397;47.474;9.416;2023-07-08T07:11:16;95843.63;;;22.07;48.71
11268;BME280;49397;47.474;9.416;2023-07-08T07:13:41;95847.63;;;22.17;47.19
11268;BME280;49397;47.474;9.416;2023-07-08T07:16:07;95844.84;;;22.43;47.03
11268;BME280;49397;47.474;9.416;2023-07-08T07:18:32;95839.13;;;22.55;46.59
11268;BME280;49397;47.474;9.416;2023-07-08T07:20:58;95845.13;;;22.67;47.15
11268;BME280;49397;47.474;9.416;2023-07-08T07:23:24;95842.84;;;22.73;47.09
11268;BME280;49397;47.474;9.416;2023-07-08T07:25:50;95847.06;;;22.67;46.92
11268;BME280;49397;47.474;9.416;2023-07-08T07:28:16;95851.53;;;22.49;46.85
11268;BME280;49397;47.474;9.416;2023-07-08T07:30:46;95850.72;;;22.48;46.91
11268;BME280;49397;47.474;9.416;2023-07-08T07:33:12;95843.66;;;22.44;47.68
11268;BME280;49397;47.474;9.416;2023-07-08T07:35:44;95846.88;;;22.53;47.06
11268;BME280;49397;47.474;9.416;2023-07-08T07:38:09;95847.47;;;22.69;47.30
11268;BME280;49397;47.474;9.416;2023-07-08T07:40:35;95850.63;;;22.71;46.91
11268;BME280;49397;47.474;9.416;2023-07-08T07:43:00;95836.31;;;22.81;47.13
11268;BME280;49397;47.474;9.416;2023-07-08T07:45:26;95844.50;;;22.85;47.24
11268;BME280;49397;47.474;9.416;2023-07-08T07:47:52;95836.97;;;23.11;47.51
11268;BME280;49397;47.474;9.416;2023-07-08T07:50:17;95837.13;;;23.33;45.42
11268;BME280;49397;47.474;9.416;2023-07-08T07:52:42;95840.19;;;23.75;46.75
11268;BME280;49397;47.474;9.416;2023-07-08T07:55:08;95833.09;;;24.32;45.79
11268;BME280;49397;47.474;9.416;2023-07-08T07:57:33;95839.31;;;24.26;44.34
11268;BME280;49397;47.474;9.416;2023-07-08T07:59:59;95840.84;;;24.16;46.04
11268;BME280;49397;47.474;9.416;2023-07-08T08:02:24;95839.31;;;24.26;46.92
11268;BME280;49397;47.474;9.416;2023-07-08T08:04:50;95835.03;;;24.25;43.64
11268;BME280;49397;47.474;9.416;2023-07-08T08:07:15;95832.31;;;24.35;44.31
11268;BME280;49397;47.474;9.416;2023-07-08T08:09:40;95831.16;;;24.36;45.44
11268;BME280;49397;47.474;9.416;2023-07-08T08:12:07;95826.84;;;24.35;44.40
11268;BME280;49397;47.474;9.416;2023-07-08T08:14:34;95831.13;;;24.29;45.46
11268;BME280;49397;47.474;9.416;2023-07-08T08:17:00;95830.75;;;24.27;44.42
11268;BME280;49397;47.474;9.416;2023-07-08T08:19:25;95836.69;;;24.54;45.28
11268;BME280;49397;47.474;9.416;2023-07-08T08:21:50;95826.50;;;24.37;43.27
11268;BME280;49397;47.474;9.416;2023-07-08T08:24:16;95823.75;;;24.37;42.94
11268;BME280;49397;47.474;9.416;2023-07-08T08:26:41;95828.41;;;24.33;44.64
11268;BME280;49397;47.474;9.416;2023-07-08T08:29:06;95825.31;;;24.41;44.64
11268;BME280;49397;47.474;9.416;2023-07-08T08:31:32;95823.75;;;24.37;44.30
11268;BME280;49397;47.474;9.416;2023-07-08T08:33:57;95816.97;;;24.02;44.50
11268;BME280;49397;47.474;9.416;2023-07-08T08:36:23;95820.50;;;24.10;44.84
11268;BME280;49397;47.474;9.416;2023-07-08T08:38:49;95813.03;;;23.96;43.89
11268;BME280;49397;47.474;9.416;2023-07-08T08:41:21;95811.09;;;24.04;44.43
11268;BME280;49397;47.474;9.416;2023-07-08T08:43:49;95808.56;;;24.46;44.07
11268;BME280;49397;47.474;9.416;2023-07-08T08:46:33;95804.75;;;25.14;42.99
11268;BME280;49397;47.474;9.416;2023-07-08T08:49:25;95809.06;;;25.40;42.46
11268;BME280;49397;47.474;9.416;2023-07-08T08:51:52;95807.88;;;25.31;41.24
11268;BME280;49397;47.474;9.416;2023-07-08T08:54:18;95811.00;;;25.43;41.47
11268;BME280;49397;47.474;9.416;2023-07-08T08:59:56;95799.69;;;25.48;41.61
11268;BME280;49397;47.474;9.416;2023-07-08T09:02:41;95809.81;;;25.69;39.81
11268;BME280;49397;47.474;9.416;2023-07-08T09:05:10;95801.16;;;25.95;40.86
11268;BME280;49397;47.474;9.416;2023-07-08T09:10:46;95792.59;;;25.72;39.37
11268;BME280;49397;47.474;9.416;2023-07-08T09:13:25;95787.53;;;25.85;42.04
11268;BME280;49397;47.474;9.416;2023-07-08T09:16:02;95782.06;;;25.77;40.20
11268;BME280;49397;47.474;9.416;2023-07-08T09:18:36;95794.16;;;25.91;40.63
11268;BME280;49397;47.474;9.416;2023-07-08T09:21:18;95792.16;;;25.95;38.78
11268;BME280;49397;47.474;9.416;2023-07-08T09:23:47;95794.06;;;26.12;39.88
11268;BME280;49397;47.474;9.416;2023-07-08T09:26:18;95792.91;;;26.02;39.84
11268;BME280;49397;47.474;9.416;2023-07-08T09:28:45;95787.00;;;26.11;38.80
11268;BME280;49397;47.474;9.416;2023-07-08T09:31:31;95779.94;;;26.27;38.71
11268;BME280;49397;47.474;9.416;2023-07-08T09:34:11;95777.25;;;26.90;38.83
11268;BME280;49397;47.474;9.416;2023-07-08T09:36:46;95772.31;;;27.18;38.95
11268;BME280;49397;47.474;9.416;2023-07-08T09:39:13;95779.34;;;27.19;36.16
11268;BME280;49397;47.474;9.416;2023-07-08T09:41:41;95779.78;;;27.14;36.14
11268;BME280;49397;47.474;9.416;2023-07-08T09:44:17;95781.00;;;27.10;37.63
11268;BME280;49397;47.474;9.416;2023-07-08T09:46:43;95783.38;;;27.08;41.82
11268;BME280;49397;47.474;9.416;2023-07-08T09:49:16;95782.28;;;26.98;47.07
11268;BME280;49397;47.474;9.416;2023-07-08T09:51:43;95787.75;;;26.29;50.79
11268;BME280;49397;47.474;9.416;2023-07-08T09:54:09;95793.00;;;25.74;50.68
11268;BME280;49397;47.474;9.416;2023-07-08T09:56:35;95789.44;;;25.91;51.00
11268;BME280;49397;47.474;9.416;2023-07-08T09:59:01;95788.75;;;25.59;50.01
11268;BME280;49397;47.474;9.416;2023-07-08T10:01:26;95796.94;;;25.48;51.05
11268;BME280;49397;47.474;9.416;2023-07-08T10:03:58;95807.91;;;25.52;51.22
11268;BME280;49397;47.474;9.416;2023-07-08T10:06:33;95814.91;;;25.81;51.30
11268;BME280;49397;47.474;9.416;2023-07-08T10:09:04;95811.41;;;25.70;51.60
11268;BME280;49397;47.474;9.416;2023-07-08T10:11:33;95808.66;;;25.59;51.79
11268;BME280;49397;47.474;9.416;2023-07-08T10:14:04;95802.41;;;25.66;50.68
11268;BME280;49397;47.474;9.416;2023-07-08T10:16:33;95809.47;;;25.39;50.42
11268;BME280;49397;47.474;9.416;2023-07-08T10:18:59;95811.41;;;25.59;48.87
11268;BME280;49397;47.474;9.416;2023-07-08T10:21:37;95807.75;;;26.26;48.43
11268;BME280;49397;47.474;9.416;2023-07-08T10:33:00;95820.41;;;26.82;46.39
11268;BME280;49397;47.474;9.416;2023-07-08T10:35:36;95818.78;;;26.88;47.22
11268;BME280;49397;47.474;9.416;2023-07-08T10:38:18;95821.47;;;26.99;47.30
11268;BME280;49397;47.474;9.416;2023-07-08T10:41:25;95830.41;;;27.06;48.04
11268;BME280;49397;47.474;9.416;2023-07-08T10:44:13;95828.03;;;27.15;45.45
11268;BME280;49397;47.474;9.416;2023-07-08T10:46:49;95832.78;;;26.14;47.83
11268;BME280;49397;47.474;9.416;2023-07-08T10:52:40;95843.41;;;26.01;51.23
11268;BME280;49397;47.474;9.416;2023-07-08T10:55:36;95835.88;;;26.37;48.76
11268;BME280;49397;47.474;9.416;2023-07-08T11:01:02;95830.59;;;26.74;47.07
11268;BME280;49397;47.474;9.416;2023-07-08T11:04:05;95827.81;;;27.44;44.92
11268;BME280;49397;47.474;9.416;2023-07-08T11:06:52;95826.66;;;27.38;45.10
11268;BME280;49397;47.474;9.416;2023-07-08T11:10:06;95827.06;;;27.36;43.61
11268;BME280;49397;47.474;9.416;2023-07-08T11:12:41;95823.34;;;26.40;45.22
11268;BME280;49397;47.474;9.416;2023-07-08T11:15:36;95829.16;;;26.52;47.95
11268;BME280;49397;47.474;9.416;2023-07-08T11:18:13;95828.88;;;26.15;48.54
11268;BME280;49397;47.474;9.416;2023-07-08T11:20:51;95833.22;;;26.05;47.92
11268;BME280;49397;47.474;9.416;2023-07-08T11:23:36;95834.03;;;25.88;49.74
11268;BME280;49397;47.474;9.416;2023-07-08T11:26:25;95826.56;;;26.17;49.38
11268;BME280;49397;47.474;9.416;2023-07-08T11:28:54;95830.50;;;26.16;47.61
11268;BME280;49397;47.474;9.416;2023-07-08T11:31:22;95825.38;;;26.21;47.31
11268;BME280;49397;47.474;9.416;2023-07-08T11:33:49;95829.44;;;26.68;45.68
11268;BME280;49397;47.474;9.416;2023-07-08T11:36:16;95820.78;;;27.35;44.75
11268;BME280;49397;47.474;9.416;2023-07-08T11:38:49;95814.44;;;27.86;42.79
11268;BME280;49397;47.474;9.416;2023-07-08T11:41:18;95817.19;;;27.86;42.21
11268;BME280;49397;47.474;9.416;2023-07-08T11:43:48;95811.75;;;27.79;42.59
11268;BME280;49397;47.474;9.416;2023-07-08T11:46:19;95810.47;;;27.91;44.00
11268;BME280;49397;47.474;9.416;2023-07-08T11:48:51;95806.19;;;28.54;43.85
11268;BME280;49397;47.474;9.416;2023-07-08T11:51:19;95811.69;;;28.54;42.56
11268;BME280;49397;47.474;9.416;2023-07-08T11:56:25;95809.00;;;28.51;42.72
11268;BME280;49397;47.474;9.416;2023-07-08T11:59:16;95810.34;;;29.23;41.27
11268;BME280;49397;47.474;9.416;2023-07-08T12:04:30;95815.63;;;29.37;40.73
11268;BME280;49397;47.474;9.416;2023-07-08T12:07:16;95816.38;;;29.14;40.34
11268;BME280;49397;47.474;9.416;2023-07-08T12:09:58;95810.13;;;29.10;42.20
11268;BME280;49397;47.474;9.416;2023-07-08T12:12:29;95821.28;;;29.53;39.95
11268;BME280;49397;47.474;9.416;2023-07-08T12:15:05;95816.84;;;29.09;40.29
11268;BME280;49397;47.474;9.416;2023-07-08T12:17:34;95814.81;;;29.63;40.32
11268;BME280;49397;47.474;9.416;2023-07-08T12:20:01;95818.34;;;29.64;40.76
11268;BME280;49397;47.474;9.416;2023-07-08T12:22:28;95817.56;;;29.86;39.53
11268;BME280;49397;47.474;9.416;2023-07-08T12:24:54;95817.81;;;29.26;40.99
11268;BME280;49397;47.474;9.416;2023-07-08T12:27:21;95813.25;;;29.85;41.25
11268;BME280;49397;47.474;9.416;2023-07-08T12:29:46;95807.06;;;30.21;40.39
11268;BME280;49397;47.474;9.416;2023-07-08T12:32:12;95801.31;;;29.46;40.17
11268;BME280;49397;47.474;9.416;2023-07-08T12:34:39;95812.47;;;29.12;41.88
11268;BME280;49397;47.474;9.416;2023-07-08T12:37:04;95808.78;;;28.95;43.09
11268;BME280;49397;47.474;9.416;2023-07-08T12:39:34;95808.22;;;28.50;41.20
11268;BME280;49397;47.474;9.416;2023-07-08T12:42:00;95810.56;;;28.52;43.01
11268;BME280;49397;47.474;9.416;2023-07-08T12:44:26;95819.72;;;28.42;43.46
11268;BME280;49397;47.474;9.416;2023-07-08T12:46:53;95807.47;;;28.16;43.60
11268;BME280;49397;47.474;9.416;2023-07-08T12:49:19;95813.22;;;27.91;44.44
11268;BME280;49397;47.474;9.416;2023-07-08T12:51:45;95817.25;;;27.79;45.73
11268;BME280;49397;47.474;9.416;2023-07-08T12:54:12;95812.31;;;27.64;46.03
11268;BME280;49397;47.474;9.416;2023-07-08T12:56:40;95814.50;;;27.35;46.04
11268;BME280;49397;47.474;9.416;2023-07-08T12:59:08;95813.97;;;27.03;45.64
11268;BME280;49397;47.474;9.416;2023-07-08T13:01:34;95807.09;;;27.28;45.45
11268;BME280;49397;47.474;9.416;2023-07-08T13:04:10;95820.78;;;27.35;45.80
11268;BME280;49397;47.474;9.416;2023-07-08T13:06:37;95815.22;;;27.43;46.06
11268;BME280;49397;47.474;9.416;2023-07-08T13:09:21;95816.59;;;27.68;44.64
11268;BME280;49397;47.474;9.416;2023-07-08T13:11:48;95814.34;;;28.31;45.10
11268;BME280;49397;47.474;9.416;2023-07-08T13:14:14;95816.44;;;28.84;42.79
11268;BME280;49397;47.474;9.416;2023-07-08T13:16:39;95809.69;;;28.88;41.83
11268;BME280;49397;47.474;9.416;2023-07-08T13:19:05;95810.91;;;28.54;43.76
11268;BME280;49397;47.474;9.416;2023-07-08T13:21:31;95803.75;;;28.60;43.05
11268;BME280;49397;47.474;9.416;2023-07-08T13:23:57;95805.28;;;28.64;42.98
11268;BME280;49397;47.474;9.416;2023-07-08T13:26:25;95796.94;;;28.11;42.14
11268;BME280;49397;47.474;9.416;2023-07-08T13:29:04;95794.19;;;28.98;41.73
11268;BME280;49397;47.474;9.416;2023-07-08T13:31:37;95792.38;;;29.42;39.42
11268;BME280;49397;47.474;9.416;2023-07-08T13:34:09;95801.31;;;29.46;40.61
11268;BME280;49397;47.474;9.416;2023-07-08T13:36:39;95799.56;;;29.55;40.20
11268;BME280;49397;47.474;9.416;2023-07-08T13:39:08;95793.28;;;29.78;40.35
11268;BME280;49397;47.474;9.416;2023-07-08T13:41:35;95791.25;;;29.59;40.67
11268;BME280;49397;47.474;9.416;2023-07-08T13:44:05;95797.25;;;29.77;39.69
11268;BME280;49397;47.474;9.416;2023-07-08T13:49:01;95794.16;;;29.28;40.02
11268;BME280;49397;47.474;9.416;2023-07-08T13:51:31;95796.00;;;29.08;40.70
11268;BME280;49397;47.474;9.416;2023-07-08T13:54:00;95796.28;;;28.33;40.11
11268;BME280;49397;47.474;9.416;2023-07-08T13:56:31;95788.72;;;28.07;40.39
11268;BME280;49397;47.474;9.416;2023-07-08T13:59:07;95797.22;;;28.20;39.97
11268;BME280;49397;47.474;9.416;2023-07-08T14:01:37;95787.03;;;27.79;41.55
11268;BME280;49397;47.474;9.416;2023-07-08T14:04:03;95793.69;;;27.82;42.07
11268;BME280;49397;47.474;9.416;2023-07-08T14:06:34;95800.84;;;28.13;42.64
11268;BME280;49397;47.474;9.416;2023-07-08T14:09:27;95800.13;;;28.40;42.30
11268;BME280;49397;47.474;9.416;2023-07-08T14:11:52;95793.38;;;28.44;42.20
11268;BME280;49397;47.474;9.416;2023-07-08T14:14:17;95795.56;;;28.56;41.93
11268;BME280;49397;47.474;9.416;2023-07-08T14:16:50;95792.22;;;28.42;42.00
11268;BME280;49397;47.474;9.416;2023-07-08T14:19:24;95789.59;;;28.61;41.29
11268;BME280;49397;47.474;9.416;2023-07-08T14:22:00;95787.09;;;28.44;39.85
11268;BME280;49397;47.474;9.416;2023-07-08T14:24:26;95788.59;;;28.18;40.29